< < Back
Terminal Aerodrome Forecast


Current Version              Previous Versions:   1  2  3  4  5  6  7  8  9  

Terminal Aerodrome Forecast

617
FTUS42 KTAE 310601 AAA
TAFVLD
TAF AMD
KVLD 310601Z 3106/0106 00000KT 6SM BR BKN002
     FM311400 03003KT P6SM SCT030=

Latest METAR

580
SAUS70 KWBC 312000 RRC
MTRVLD
METAR KVLD 311953Z 36007KT 10SM CLR 32/22 A3004 RMK AO2 SLP177
T03220217


USA.gov is the U.S. government's official web portal to all federal, state and local government web resources and services.